createdAt,value
2019-05-21T00:01:36.677Z,55.42
2019-05-21T00:04:06.780Z,55.22
2019-05-21T00:06:36.869Z,55.13
2019-05-21T00:09:07.060Z,54.99
2019-05-21T00:11:37.158Z,54.95
2019-05-21T00:14:07.222Z,55.06
2019-05-21T00:16:38.273Z,55.17
2019-05-21T00:19:08.331Z,55.25
2019-05-21T00:21:38.464Z,55.23
2019-05-21T00:24:08.502Z,55.23
2019-05-21T00:26:38.618Z,55.22
2019-05-21T00:29:43.978Z,55.45
2019-05-21T00:32:49.387Z,55.52
2019-05-21T00:35:54.906Z,55.65
2019-05-21T00:39:00.674Z,55.65
2019-05-21T00:42:05.151Z,55.65
2019-05-21T00:44:37.003Z,55.96
2019-05-21T00:47:07.456Z,56.16
2019-05-21T00:49:37.503Z,56.31
2019-05-21T00:52:09.013Z,56.46
2019-05-21T00:54:39.406Z,56.24
2019-05-21T00:57:09.468Z,55.91
2019-05-21T00:59:39.533Z,55.77
2019-05-21T01:02:10.613Z,56.65
2019-05-21T01:04:40.732Z,56.65
2019-05-21T01:07:10.820Z,56.65
2019-05-21T01:09:41.824Z,56.70
2019-05-21T01:12:11.891Z,56.83
2019-05-21T01:14:41.927Z,56.55
2019-05-21T01:17:12.086Z,56.55
2019-05-21T01:19:42.140Z,56.49
2019-05-21T01:22:12.222Z,56.54
2019-05-21T01:24:42.322Z,56.29
2019-05-21T01:27:12.428Z,56.25
2019-05-21T01:29:42.485Z,56.49
2019-05-21T01:32:12.527Z,57.09
2019-05-21T01:34:42.557Z,57.69
2019-05-21T01:37:12.627Z,57.69
2019-05-21T01:39:42.675Z,58.17
2019-05-21T01:42:12.749Z,58.30
2019-05-21T01:44:42.797Z,58.37
2019-05-21T01:47:12.866Z,58.26
2019-05-21T01:49:42.909Z,58.46
2019-05-21T01:52:12.991Z,58.31
2019-05-21T01:54:43.035Z,57.89
2019-05-21T01:57:13.116Z,57.49
2019-05-21T01:59:43.156Z,57.21
2019-05-21T02:02:13.264Z,57.05
2019-05-21T02:04:43.303Z,56.44
2019-05-21T02:07:13.370Z,56.32
2019-05-21T02:09:58.321Z,56.32
2019-05-21T02:12:28.475Z,56.41
2019-05-21T02:14:58.515Z,56.41
2019-05-21T02:17:28.581Z,56.10
2019-05-21T02:19:58.630Z,56.22
2019-05-21T02:22:28.683Z,56.02
2019-05-21T02:24:58.738Z,55.74
2019-05-21T02:27:28.843Z,55.84
2019-05-21T02:29:58.905Z,55.84
2019-05-21T02:32:28.986Z,55.89
2019-05-21T02:34:59.027Z,55.89
2019-05-21T02:37:29.130Z,55.98
2019-05-21T02:39:59.145Z,55.98
2019-05-21T02:42:29.222Z,56.05
2019-05-21T02:44:59.271Z,56.08
2019-05-21T02:47:29.401Z,56.05
2019-05-21T02:49:59.460Z,55.96
2019-05-21T02:52:29.510Z,55.99
2019-05-21T02:54:59.567Z,56.13
2019-05-21T02:57:39.638Z,56.07
2019-05-21T03:00:22.346Z,56.08
2019-05-21T03:02:53.163Z,56.07
2019-05-21T03:05:23.232Z,56.33
2019-05-21T03:07:53.269Z,56.49
2019-05-21T03:10:23.347Z,56.77
2019-05-21T03:12:53.394Z,56.82
2019-05-21T03:15:23.457Z,56.69
2019-05-21T03:17:53.539Z,56.48
2019-05-21T03:20:23.584Z,56.35
2019-05-21T03:22:53.670Z,56.37
2019-05-21T03:25:23.721Z,56.62
2019-05-21T03:27:53.793Z,57.01
2019-05-21T03:30:23.946Z,57.37
2019-05-21T03:32:54.135Z,57.59
2019-05-21T03:35:24.186Z,57.61
2019-05-21T03:37:54.259Z,57.55
2019-05-21T03:40:24.301Z,57.52
2019-05-21T03:42:54.390Z,57.78
2019-05-21T03:45:24.426Z,57.97
2019-05-21T03:47:54.510Z,58.27
2019-05-21T03:50:24.565Z,58.45
2019-05-21T03:52:54.638Z,58.48
2019-05-21T03:55:24.685Z,58.51
2019-05-21T03:57:54.727Z,58.56
2019-05-21T04:00:24.810Z,58.76
2019-05-21T04:02:54.869Z,58.78
2019-05-21T04:05:25.323Z,58.56
2019-05-21T04:07:55.349Z,58.50
2019-05-21T04:10:25.397Z,58.71
2019-05-21T04:13:10.346Z,58.89
2019-05-21T04:16:08.600Z,58.98
2019-05-21T04:19:00.626Z,59.29
2019-05-21T04:21:30.682Z,59.27
2019-05-21T04:24:00.745Z,59.32
2019-05-21T04:26:30.818Z,59.09
2019-05-21T04:29:00.875Z,58.70
2019-05-21T04:31:30.931Z,58.26
2019-05-21T04:34:01.012Z,57.98
2019-05-21T04:36:31.058Z,58.27
2019-05-21T04:39:01.186Z,58.40
2019-05-21T04:41:32.303Z,58.52
2019-05-21T04:44:02.399Z,58.56
2019-05-21T04:46:33.402Z,58.62
2019-05-21T04:49:03.465Z,58.79
2019-05-21T04:51:33.522Z,58.87
2019-05-21T04:54:03.689Z,58.82
2019-05-21T04:56:33.733Z,58.69
2019-05-21T04:59:03.826Z,58.56
2019-05-21T05:01:33.864Z,58.61
2019-05-21T05:04:03.968Z,58.42
2019-05-21T05:06:34.001Z,58.06
2019-05-21T05:09:04.969Z,57.90
2019-05-21T05:11:35.036Z,57.78
2019-05-21T05:14:05.066Z,57.74
2019-05-21T05:16:35.150Z,57.86
2019-05-21T05:19:05.177Z,58.46
2019-05-21T05:21:35.279Z,59.18
2019-05-21T05:24:05.332Z,59.63
2019-05-21T05:26:35.428Z,59.80
2019-05-21T05:29:05.466Z,59.66
2019-05-21T05:31:35.544Z,59.00
2019-05-21T05:34:05.604Z,58.98
2019-05-21T05:36:35.676Z,59.17
2019-05-21T05:39:07.378Z,59.40
2019-05-21T05:41:37.454Z,60.00
2019-05-21T05:44:07.497Z,60.42
2019-05-21T05:46:37.556Z,60.18
2019-05-21T05:49:13.453Z,59.81
2019-05-21T05:51:43.508Z,59.55
2019-05-21T05:54:13.582Z,59.24
2019-05-21T05:56:43.621Z,58.97
2019-05-21T05:59:14.609Z,58.72
2019-05-21T06:01:44.807Z,58.44
2019-05-21T06:04:19.510Z,58.26
2019-05-21T06:06:49.575Z,58.05
2019-05-21T06:09:19.694Z,58.30
2019-05-21T06:11:49.740Z,58.77
2019-05-21T06:14:19.783Z,59.36
2019-05-21T06:16:49.821Z,59.72
2019-05-21T06:19:19.896Z,59.95
2019-05-21T06:21:49.949Z,59.64
2019-05-21T06:24:20.006Z,59.46
2019-05-21T06:26:50.104Z,59.12
2019-05-21T06:29:20.162Z,59.21
2019-05-21T06:31:50.216Z,58.95
2019-05-21T06:34:20.290Z,58.69
2019-05-21T06:36:50.345Z,58.49
2019-05-21T06:39:20.408Z,58.68
2019-05-21T06:41:50.482Z,58.63
2019-05-21T06:44:21.507Z,58.55
2019-05-21T06:46:51.571Z,58.31
2019-05-21T06:49:21.722Z,57.99
2019-05-21T06:51:51.807Z,57.23
2019-05-21T06:54:21.843Z,57.23
2019-05-21T06:56:51.903Z,57.34
2019-05-21T06:59:21.946Z,57.44
2019-05-21T07:01:52.068Z,57.44
2019-05-21T07:04:22.136Z,57.61
2019-05-21T07:06:52.223Z,57.63
2019-05-21T07:09:22.406Z,57.63
2019-05-21T07:11:52.468Z,57.73
2019-05-21T07:14:22.513Z,57.67
2019-05-21T07:16:52.563Z,57.75
2019-05-21T07:19:22.662Z,57.97
2019-05-21T07:21:52.698Z,57.67
2019-05-21T07:24:22.758Z,57.47
2019-05-21T07:26:52.805Z,57.65
2019-05-21T07:29:22.842Z,57.53
2019-05-21T07:31:52.942Z,57.54
2019-05-21T07:34:22.970Z,57.13
2019-05-21T07:36:53.050Z,56.95
2019-05-21T07:39:23.080Z,56.86
2019-05-21T07:41:55.647Z,56.67
2019-05-21T07:44:25.742Z,56.59
2019-05-21T07:46:55.750Z,56.64
2019-05-21T07:49:25.800Z,56.42
2019-05-21T07:51:55.860Z,56.38
2019-05-21T07:54:28.074Z,55.77
2019-05-21T07:56:57.675Z,55.71
2019-05-21T07:59:28.693Z,55.50
2019-05-21T08:01:58.763Z,55.36
2019-05-21T08:04:28.811Z,55.12
2019-05-21T08:06:59.993Z,54.54
2019-05-21T08:09:30.066Z,54.46
2019-05-21T08:12:00.116Z,54.42
2019-05-21T08:14:30.179Z,54.10
2019-05-21T08:17:00.212Z,53.95
2019-05-21T08:19:31.334Z,54.23
2019-05-21T08:22:01.422Z,53.75
2019-05-21T08:24:31.483Z,53.59
2019-05-21T08:27:01.518Z,53.34
2019-05-21T08:29:31.545Z,53.35
2019-05-21T08:32:02.576Z,53.49
2019-05-21T08:34:32.609Z,52.96
2019-05-21T08:37:02.662Z,52.42
2019-05-21T08:39:32.737Z,52.47
2019-05-21T08:42:02.768Z,52.94
2019-05-21T08:44:32.839Z,53.09
2019-05-21T08:47:02.865Z,52.52
2019-05-21T08:49:32.919Z,52.56
2019-05-21T08:52:02.996Z,52.50
2019-05-21T08:54:48.126Z,52.26
2019-05-21T08:57:18.227Z,51.72
2019-05-21T08:59:48.265Z,51.91
2019-05-21T09:02:18.338Z,52.40
2019-05-21T09:04:48.496Z,52.04
2019-05-21T09:07:18.566Z,52.40
2019-05-21T09:09:51.283Z,52.01
2019-05-21T09:12:20.394Z,51.97
2019-05-21T09:14:50.452Z,51.85
2019-05-21T09:17:20.533Z,51.83
2019-05-21T09:19:50.578Z,51.65
2019-05-21T09:22:20.640Z,50.25
2019-05-21T09:24:50.701Z,49.80
2019-05-21T09:27:20.777Z,50.19
2019-05-21T09:29:50.859Z,50.40
2019-05-21T09:32:20.894Z,49.69
2019-05-21T09:34:50.988Z,49.86
2019-05-21T09:37:21.029Z,49.63
2019-05-21T09:39:51.169Z,48.81
2019-05-21T09:42:23.021Z,48.55
2019-05-21T09:44:53.286Z,48.39
2019-05-21T09:47:23.330Z,47.70
2019-05-21T09:49:54.107Z,47.79
2019-05-21T09:52:24.158Z,47.59
2019-05-21T09:54:54.216Z,47.80
2019-05-21T09:57:31.292Z,46.88
2019-05-21T10:00:06.802Z,46.40
2019-05-21T10:02:37.534Z,46.26
2019-05-21T10:05:07.757Z,47.18
2019-05-21T10:07:40.218Z,47.25
2019-05-21T10:10:09.595Z,46.46
2019-05-21T10:12:39.740Z,45.91
2019-05-21T10:15:09.822Z,46.39
2019-05-21T10:17:39.891Z,45.58
2019-05-21T10:20:10.912Z,45.79
2019-05-21T10:22:41.046Z,44.91
2019-05-21T10:25:11.088Z,39.68
2019-05-21T10:27:41.218Z,38.84
2019-05-21T10:30:11.263Z,36.87
2019-05-21T10:32:41.322Z,35.87
2019-05-21T10:35:11.405Z,36.49
2019-05-21T10:37:53.979Z,37.61
2019-05-21T10:40:13.242Z,35.60
2019-05-21T10:42:43.309Z,34.74
2019-05-21T10:45:13.356Z,34.50
2019-05-21T10:47:43.397Z,35.11
2019-05-21T10:50:13.481Z,35.60
2019-05-21T10:52:43.517Z,34.65
2019-05-21T10:55:16.366Z,33.68
2019-05-21T10:57:46.406Z,33.92
2019-05-21T11:00:23.063Z,33.47
2019-05-21T11:03:14.223Z,33.69
2019-05-21T11:05:50.197Z,33.08
2019-05-21T11:08:24.006Z,32.46
2019-05-21T11:10:52.053Z,33.04
2019-05-21T11:13:22.099Z,31.42
2019-05-21T11:15:52.140Z,32.77
2019-05-21T11:18:22.189Z,33.31
2019-05-21T11:20:52.343Z,32.87
2019-05-21T11:23:22.433Z,32.18
2019-05-21T11:25:52.457Z,33.21
2019-05-21T11:28:22.547Z,33.63
2019-05-21T11:30:52.804Z,32.85
2019-05-21T11:33:22.932Z,32.51
2019-05-21T11:35:52.954Z,32.07
2019-05-21T11:38:37.760Z,32.58
2019-05-21T11:40:54.772Z,33.44
2019-05-21T11:43:24.836Z,33.43
2019-05-21T11:45:54.903Z,31.52
2019-05-21T11:48:25.013Z,31.73
2019-05-21T11:50:55.054Z,31.10
2019-05-21T11:53:25.127Z,30.97
2019-05-21T11:55:55.157Z,31.83
2019-05-21T11:58:25.224Z,31.12
2019-05-21T12:00:55.260Z,30.29
2019-05-21T12:03:25.329Z,30.52
2019-05-21T12:05:55.392Z,30.75
2019-05-21T12:08:25.474Z,30.57
2019-05-21T12:10:55.516Z,30.47
2019-05-21T12:13:25.568Z,29.81
2019-05-21T12:15:55.609Z,31.24
2019-05-21T12:18:25.686Z,31.70
2019-05-21T12:20:55.736Z,31.79
2019-05-21T12:23:25.799Z,30.32
2019-05-21T12:25:55.837Z,31.23
2019-05-21T12:28:25.878Z,31.38
2019-05-21T12:30:55.961Z,30.06
2019-05-21T12:33:26.002Z,30.82
2019-05-21T12:35:56.054Z,31.69
2019-05-21T12:38:26.138Z,30.90
2019-05-21T12:40:56.145Z,33.43
2019-05-21T12:43:26.209Z,34.61
2019-05-21T12:45:56.257Z,34.60
2019-05-21T12:48:26.307Z,33.93
2019-05-21T12:50:56.438Z,30.84
2019-05-21T12:53:26.512Z,31.38
2019-05-21T12:55:56.580Z,33.49
2019-05-21T12:58:26.625Z,33.79
2019-05-21T13:00:56.685Z,33.63
2019-05-21T13:03:26.735Z,33.05
2019-05-21T13:05:56.793Z,34.54
2019-05-21T13:08:26.879Z,35.21
2019-05-21T13:10:56.927Z,35.19
2019-05-21T13:13:26.997Z,35.55
2019-05-21T13:15:57.035Z,35.36
2019-05-21T13:18:27.102Z,35.65
2019-05-21T13:20:57.147Z,35.71
2019-05-21T13:23:27.284Z,33.74
2019-05-21T13:25:57.309Z,32.94
2019-05-21T13:28:27.442Z,32.66
2019-05-21T13:30:57.497Z,32.42
2019-05-21T13:33:27.589Z,32.39
2019-05-21T13:35:57.606Z,32.22
2019-05-21T13:38:27.676Z,32.29
2019-05-21T13:40:58.699Z,32.41
2019-05-21T13:43:28.970Z,31.78
2019-05-21T13:45:58.971Z,31.81
2019-05-21T13:48:30.328Z,32.18
2019-05-21T13:51:00.386Z,31.94
2019-05-21T13:53:30.421Z,31.90
2019-05-21T13:56:02.707Z,32.09
2019-05-21T13:58:32.772Z,32.37
2019-05-21T14:01:02.810Z,32.71
2019-05-21T14:03:32.865Z,33.16
2019-05-21T14:06:02.928Z,33.13
2019-05-21T14:08:34.293Z,32.74
2019-05-21T14:11:04.382Z,33.44
2019-05-21T14:13:34.403Z,33.42
2019-05-21T14:16:04.435Z,34.25
2019-05-21T14:18:35.504Z,35.07
2019-05-21T14:21:05.538Z,35.57
2019-05-21T14:23:35.598Z,35.91
2019-05-21T14:26:05.821Z,36.06
2019-05-21T14:28:37.221Z,36.38
2019-05-21T14:31:07.325Z,36.52
2019-05-21T14:33:37.377Z,36.27
2019-05-21T14:36:07.492Z,36.20
2019-05-21T14:38:37.558Z,35.70
2019-05-21T14:41:07.621Z,36.08
2019-05-21T14:43:37.749Z,36.19
2019-05-21T14:46:07.778Z,36.09
2019-05-21T14:48:37.906Z,35.92
2019-05-21T14:51:07.951Z,36.66
2019-05-21T14:53:38.007Z,36.44
2019-05-21T14:56:08.147Z,36.56
2019-05-21T14:58:38.193Z,36.86
2019-05-21T15:01:08.234Z,36.51
2019-05-21T15:03:38.299Z,36.92
2019-05-21T15:06:08.349Z,37.04
2019-05-21T15:08:38.404Z,36.44
2019-05-21T15:11:08.450Z,36.48
2019-05-21T15:13:38.637Z,36.38
2019-05-21T15:16:08.687Z,36.12
2019-05-21T15:18:38.804Z,35.76
2019-05-21T15:21:16.835Z,36.83
2019-05-21T15:23:48.817Z,36.84
2019-05-21T15:26:19.204Z,36.11
2019-05-21T15:28:49.272Z,36.50
2019-05-21T15:31:19.307Z,37.18
2019-05-21T15:33:49.445Z,37.52
2019-05-21T15:36:19.486Z,37.60
2019-05-21T15:38:51.106Z,36.60
2019-05-21T15:41:21.377Z,36.97
2019-05-21T15:43:51.453Z,37.70
2019-05-21T15:46:21.493Z,38.16
2019-05-21T15:48:51.586Z,38.09
2019-05-21T15:51:21.621Z,36.92
2019-05-21T15:53:51.690Z,36.61
2019-05-21T15:56:21.759Z,36.82
2019-05-21T15:58:51.830Z,37.01
2019-05-21T16:03:50.663Z,35.92
2019-05-21T16:06:20.802Z,36.29
2019-05-21T16:08:51.002Z,37.83
2019-05-21T16:11:28.531Z,38.04
2019-05-21T16:13:52.821Z,38.00
2019-05-21T16:16:22.893Z,38.14
2019-05-21T16:18:52.941Z,38.67
2019-05-21T16:21:24.078Z,38.35
2019-05-21T16:23:54.260Z,37.11
2019-05-21T16:26:24.314Z,36.79
2019-05-21T16:28:54.500Z,36.82
2019-05-21T16:31:24.521Z,37.38
2019-05-21T16:33:54.602Z,36.98
2019-05-21T16:36:24.717Z,36.94
2019-05-21T16:38:54.899Z,36.92
2019-05-21T16:41:25.590Z,37.03
2019-05-21T16:43:55.740Z,37.27
2019-05-21T16:46:25.800Z,37.62
2019-05-21T16:48:55.874Z,37.71
2019-05-21T16:51:26.868Z,37.72
2019-05-21T16:53:56.936Z,38.22
2019-05-21T16:56:27.961Z,38.36
2019-05-21T16:58:58.068Z,38.14
2019-05-21T17:01:28.190Z,38.82
2019-05-21T17:04:00.236Z,39.29
2019-05-21T17:06:30.296Z,39.64
2019-05-21T17:09:00.352Z,40.30
2019-05-21T17:11:30.455Z,40.47
2019-05-21T17:14:00.509Z,40.70
2019-05-21T17:16:31.722Z,40.37
2019-05-21T17:19:01.809Z,40.58
2019-05-21T17:21:31.874Z,40.84
2019-05-21T17:24:01.950Z,40.94
2019-05-21T17:26:32.036Z,40.85
2019-05-21T17:29:02.069Z,40.79
2019-05-21T17:31:32.202Z,40.93
2019-05-21T17:34:02.301Z,41.58
2019-05-21T17:36:32.382Z,42.13
2019-05-21T17:39:02.497Z,42.26
2019-05-21T17:41:32.781Z,42.23
2019-05-21T17:44:02.821Z,42.78
2019-05-21T17:46:33.782Z,42.51
2019-05-21T17:49:03.931Z,42.81
2019-05-21T17:51:33.964Z,43.20
2019-05-21T17:54:04.097Z,43.65
2019-05-21T17:56:34.158Z,43.51
2019-05-21T17:59:04.287Z,43.67
2019-05-21T18:01:34.393Z,43.72
2019-05-21T18:04:04.540Z,43.54
2019-05-21T18:06:34.880Z,43.98
2019-05-21T18:09:08.075Z,43.98
2019-05-21T18:11:38.162Z,43.86
2019-05-21T18:14:08.607Z,44.10
2019-05-21T18:16:38.910Z,44.25
2019-05-21T18:19:09.067Z,44.36
2019-05-21T18:21:39.278Z,44.73
2019-05-21T18:24:09.330Z,44.97
2019-05-21T18:26:39.551Z,45.46
2019-05-21T18:29:09.652Z,45.72
2019-05-21T18:31:39.711Z,45.69
2019-05-21T18:34:09.838Z,45.71
2019-05-21T18:36:39.990Z,45.67
2019-05-21T18:39:10.101Z,45.55
2019-05-21T18:41:40.254Z,45.68
2019-05-21T18:44:10.351Z,45.91
2019-05-21T18:46:40.517Z,45.77
2019-05-21T18:49:10.666Z,45.79
2019-05-21T18:51:40.709Z,45.61
2019-05-21T18:54:10.798Z,45.50
2019-05-21T18:56:41.892Z,45.43
2019-05-21T18:59:12.041Z,45.07
2019-05-21T19:01:42.097Z,45.38
2019-05-21T19:04:12.206Z,45.36
2019-05-21T19:06:42.366Z,45.26
2019-05-21T19:09:12.400Z,45.32
2019-05-21T19:11:42.510Z,45.25
2019-05-21T19:14:13.552Z,45.38
2019-05-21T19:16:43.657Z,45.31
2019-05-21T19:19:13.700Z,45.11
2019-05-21T19:21:43.792Z,44.96
2019-05-21T19:24:13.926Z,44.97
2019-05-21T19:26:44.268Z,45.01
2019-05-21T19:29:14.423Z,45.02
2019-05-21T19:31:44.448Z,44.93
2019-05-21T19:34:14.506Z,44.97
2019-05-21T19:36:44.596Z,45.11
2019-05-21T19:39:14.652Z,45.12
2019-05-21T19:41:44.780Z,45.07
2019-05-21T19:44:14.825Z,45.11
2019-05-21T19:46:44.941Z,45.09
2019-05-21T19:49:15.028Z,45.32
2019-05-21T19:51:45.081Z,45.39
2019-05-21T19:54:15.130Z,45.38
2019-05-21T19:56:45.183Z,45.57
2019-05-21T19:59:15.215Z,45.82
2019-05-21T20:01:45.454Z,46.05
2019-05-21T20:04:16.102Z,46.06
2019-05-21T20:06:48.443Z,46.29
2019-05-21T20:09:20.151Z,46.47
2019-05-21T20:11:50.249Z,46.89
2019-05-21T20:14:20.388Z,47.19
2019-05-21T20:16:50.821Z,47.19
2019-05-21T20:19:21.161Z,47.89
2019-05-21T20:21:51.385Z,48.59
2019-05-21T20:24:21.908Z,48.91
2019-05-21T20:26:52.028Z,49.04
2019-05-21T20:29:22.333Z,49.30
2019-05-21T20:31:52.368Z,49.36
2019-05-21T20:34:22.405Z,49.69
2019-05-21T20:36:52.744Z,49.90
2019-05-21T20:39:24.796Z,50.13
2019-05-21T20:41:57.825Z,50.50
2019-05-21T20:44:27.890Z,50.87
2019-05-21T20:46:59.024Z,51.13
2019-05-21T20:49:29.863Z,51.14
2019-05-21T20:51:59.900Z,50.80
2019-05-21T20:54:31.603Z,50.67
2019-05-21T20:57:01.713Z,50.57
2019-05-21T20:59:31.781Z,50.29
2019-05-21T21:02:05.051Z,50.83
2019-05-21T21:04:33.983Z,51.12
2019-05-21T21:07:05.216Z,51.36
2019-05-21T21:09:36.355Z,51.29
2019-05-21T21:12:06.559Z,51.29
2019-05-21T21:14:38.687Z,51.39
2019-05-21T21:17:10.481Z,51.60
2019-05-21T21:19:40.794Z,52.03
2019-05-21T21:22:10.912Z,52.34
2019-05-21T21:24:41.296Z,52.70
2019-05-21T21:27:11.435Z,52.88
2019-05-21T21:29:41.555Z,52.78
2019-05-21T21:32:11.839Z,52.48
2019-05-21T21:34:41.873Z,52.21
2019-05-21T21:37:12.422Z,51.91
2019-05-21T21:39:42.456Z,51.79
2019-05-21T21:42:13.122Z,51.84
2019-05-21T21:44:43.162Z,52.24
2019-05-21T21:47:14.891Z,52.83
2019-05-21T21:49:45.126Z,53.37
2019-05-21T21:52:16.234Z,53.57
2019-05-21T21:54:46.763Z,53.29
2019-05-21T21:57:17.771Z,53.04
2019-05-21T21:59:47.833Z,53.05
2019-05-21T22:02:26.882Z,53.05
2019-05-21T22:04:57.313Z,53.79
2019-05-21T22:07:28.944Z,53.79
2019-05-21T22:09:59.053Z,54.16
2019-05-21T22:12:29.133Z,54.29
2019-05-21T22:15:00.125Z,54.26
2019-05-21T22:17:30.185Z,54.63
2019-05-21T22:20:00.287Z,54.63
2019-05-21T22:22:30.726Z,55.04
2019-05-21T22:25:00.765Z,54.98
2019-05-21T22:27:30.914Z,55.14
2019-05-21T22:30:00.967Z,55.30
2019-05-21T22:32:31.106Z,55.43
2019-05-21T22:35:01.154Z,55.37
2019-05-21T22:37:31.355Z,55.06
2019-05-21T22:40:01.425Z,55.17
2019-05-21T22:42:31.915Z,55.17
2019-05-21T22:45:08.128Z,55.17
2019-05-21T22:47:33.785Z,54.53
2019-05-21T22:50:04.084Z,54.31
2019-05-21T22:52:34.138Z,54.58
2019-05-21T22:55:04.176Z,54.83
2019-05-21T22:57:34.254Z,54.63
2019-05-21T23:00:04.722Z,54.75
2019-05-21T23:02:37.134Z,54.88
2019-05-21T23:05:07.853Z,55.32
2019-05-21T23:07:39.542Z,55.41
2019-05-21T23:10:11.056Z,55.20
2019-05-21T23:12:41.166Z,55.01
2019-05-21T23:15:24.527Z,55.25
2019-05-21T23:17:45.017Z,55.39
2019-05-21T23:20:17.089Z,55.54
2019-05-21T23:22:51.274Z,55.81
2019-05-21T23:25:22.228Z,56.07
2019-05-21T23:27:52.276Z,55.86
2019-05-21T23:30:23.216Z,55.46
2019-05-21T23:32:53.539Z,55.11
2019-05-21T23:35:25.344Z,54.75
2019-05-21T23:37:56.378Z,54.49
2019-05-21T23:40:26.474Z,54.98
2019-05-21T23:42:56.518Z,55.34
2019-05-21T23:45:26.584Z,55.16
2019-05-21T23:47:57.024Z,54.89
2019-05-21T23:50:27.779Z,54.62
2019-05-21T23:52:58.977Z,54.68
2019-05-21T23:55:29.054Z,54.90
2019-05-21T23:57:59.135Z,55.02
